createdAt,value
2022-11-20T00:01:31.418Z,0.70
2022-11-20T00:03:59.184Z,0.80
2022-11-20T00:06:27.891Z,0.90
2022-11-20T00:08:59.857Z,0.70
2022-11-20T00:11:28.254Z,0.70
2022-11-20T00:13:58.182Z,0.60
2022-11-20T00:16:26.881Z,0.60
2022-11-20T00:18:54.582Z,0.60
2022-11-20T00:21:26.455Z,0.70
2022-11-20T00:23:55.586Z,0.60
2022-11-20T00:26:23.712Z,0.50
2022-11-20T00:28:52.454Z,0.60
2022-11-20T00:31:19.534Z,0.50
2022-11-20T00:33:47.054Z,0.40
2022-11-20T00:36:18.884Z,0.40
2022-11-20T00:38:45.967Z,0.50
2022-11-20T00:41:15.397Z,0.50
2022-11-20T00:43:42.485Z,0.50
2022-11-20T00:46:16.681Z,0.40
2022-11-20T00:48:44.175Z,0.50
2022-11-20T00:51:13.876Z,0.40
2022-11-20T00:53:40.656Z,0.50
2022-11-20T00:56:10.315Z,0.50
2022-11-20T00:58:39.784Z,0.60
2022-11-20T01:01:12.735Z,0.40
2022-11-20T01:03:44.828Z,0.20
2022-11-20T01:06:17.425Z,0.50
2022-11-20T01:08:45.164Z,0.60
2022-11-20T01:11:15.509Z,0.50
2022-11-20T01:13:43.379Z,0.50
2022-11-20T01:16:13.307Z,0.60
2022-11-20T01:18:41.897Z,0.60
2022-11-20T01:21:11.445Z,0.60
2022-11-20T01:23:40.479Z,0.60
2022-11-20T01:26:09.597Z,0.60
2022-11-20T01:28:37.091Z,0.60
2022-11-20T01:31:22.684Z,0.50
2022-11-20T01:33:52.398Z,0.50
2022-11-20T01:36:20.710Z,0.50
2022-11-20T01:38:47.862Z,0.50
2022-11-20T01:41:35.893Z,0.30
2022-11-20T01:44:04.849Z,0.40
2022-11-20T01:46:39.195Z,0.50
2022-11-20T01:49:17.414Z,0.50
2022-11-20T01:51:49.474Z,0.50
2022-11-20T01:54:20.516Z,0.40
2022-11-20T01:56:51.086Z,0.50
2022-11-20T01:59:20.456Z,0.50
2022-11-20T02:01:47.925Z,0.60
2022-11-20T02:04:15.458Z,0.60
2022-11-20T02:06:50.296Z,0.50
2022-11-20T02:09:17.835Z,0.50
2022-11-20T02:11:44.917Z,0.40
2022-11-20T02:14:12.090Z,0.40
2022-11-20T02:16:44.991Z,0.40
2022-11-20T02:19:29.142Z,0.40
2022-11-20T02:22:11.823Z,0.30
2022-11-20T02:24:38.993Z,0.40
2022-11-20T02:27:12.874Z,0.40
2022-11-20T02:29:56.569Z,0.40
2022-11-20T02:32:25.014Z,0.20
2022-11-20T02:34:52.289Z,0.40
2022-11-20T02:37:20.486Z,0.40
2022-11-20T02:39:50.041Z,0.40
2022-11-20T02:42:16.803Z,0.40
2022-11-20T02:44:43.632Z,0.30
2022-11-20T02:47:10.576Z,0.30
2022-11-20T02:49:37.277Z,0.40
2022-11-20T02:52:04.101Z,0.50
2022-11-20T02:54:30.853Z,0.40
2022-11-20T02:56:57.607Z,0.40
2022-11-20T02:59:24.414Z,0.40
2022-11-20T03:01:51.219Z,0.40
2022-11-20T03:04:18.026Z,0.40
2022-11-20T03:06:44.715Z,0.40
2022-11-20T03:09:11.414Z,0.30
2022-11-20T03:11:38.118Z,0.30
2022-11-20T03:14:06.198Z,0.30
2022-11-20T03:16:33.651Z,0.30
2022-11-20T03:19:00.749Z,0.30
2022-11-20T03:21:30.654Z,0.30
2022-11-20T03:23:57.374Z,0.40
2022-11-20T03:26:26.796Z,0.30
2022-11-20T03:28:58.820Z,0.30
2022-11-20T03:31:28.262Z,0.10
2022-11-20T03:33:54.983Z,0.20
2022-11-20T03:36:22.391Z,0.30
2022-11-20T03:38:49.616Z,0.20
2022-11-20T03:41:32.652Z,0.30
2022-11-20T03:44:02.114Z,0.20
2022-11-20T03:46:29.958Z,0.20
2022-11-20T03:48:57.142Z,0.20
2022-11-20T03:51:25.999Z,0.10
2022-11-20T03:53:55.009Z,0.10
2022-11-20T03:56:25.689Z,0.10
2022-11-20T03:58:52.720Z,0.10
2022-11-20T04:01:22.763Z,0.10
2022-11-20T04:03:50.211Z,0.10
2022-11-20T04:06:19.701Z,0.10
2022-11-20T04:08:52.380Z,0.10
2022-11-20T04:11:26.355Z,0.00
2022-11-20T04:13:55.793Z,0.00
2022-11-20T04:16:23.946Z,0.00
2022-11-20T04:18:54.973Z,0.00
2022-11-20T04:21:22.146Z,0.00
2022-11-20T04:23:49.378Z,0.00
2022-11-20T04:26:16.137Z,0.00
2022-11-20T04:28:42.885Z,0.00
2022-11-20T04:31:11.999Z,0.10
2022-11-20T04:33:39.852Z,0.10
2022-11-20T04:36:13.004Z,0.00
2022-11-20T04:38:40.560Z,-0.10
2022-11-20T04:41:09.697Z,0.00
2022-11-20T04:43:36.480Z,0.00
2022-11-20T04:46:03.286Z,-0.10
2022-11-20T04:48:30.800Z,-0.10
2022-11-20T04:50:57.931Z,-0.10
2022-11-20T04:53:25.083Z,-0.10
2022-11-20T04:55:51.924Z,0.00
2022-11-20T04:58:18.706Z,0.00
2022-11-20T05:00:45.398Z,-0.10
2022-11-20T05:03:12.215Z,-0.20
2022-11-20T05:05:39.000Z,-0.20
2022-11-20T05:08:05.746Z,-0.20
2022-11-20T05:10:32.483Z,-0.20
2022-11-20T05:12:59.208Z,-0.30
2022-11-20T05:15:26.005Z,-0.30
2022-11-20T05:17:53.909Z,-0.20
2022-11-20T05:20:21.309Z,-0.30
2022-11-20T05:22:48.185Z,-0.30
2022-11-20T05:25:14.993Z,-0.20
2022-11-20T05:27:41.717Z,-0.20
2022-11-20T05:30:09.303Z,-0.20
2022-11-20T05:32:36.017Z,-0.20
2022-11-20T05:35:02.782Z,-0.10
2022-11-20T05:37:29.490Z,-0.20
2022-11-20T05:39:56.171Z,-0.30
2022-11-20T05:42:31.680Z,-0.40
2022-11-20T05:45:03.764Z,-0.40
2022-11-20T05:47:34.236Z,-0.40
2022-11-20T05:50:01.523Z,-0.50
2022-11-20T05:52:31.753Z,-0.50
2022-11-20T05:54:58.571Z,-0.50
2022-11-20T05:57:25.318Z,-0.50
2022-11-20T05:59:52.097Z,-0.60
2022-11-20T06:02:18.901Z,-0.60
2022-11-20T06:04:45.607Z,-0.50
2022-11-20T06:07:12.418Z,-0.50
2022-11-20T06:09:39.215Z,-0.50
2022-11-20T06:12:06.415Z,-0.50
2022-11-20T06:14:33.367Z,-0.50
2022-11-20T06:17:00.159Z,-0.40
2022-11-20T06:19:26.879Z,-0.50
2022-11-20T06:21:53.545Z,-0.50
2022-11-20T06:24:20.314Z,-0.50
2022-11-20T06:26:47.086Z,-0.50
2022-11-20T06:29:13.834Z,-0.70
2022-11-20T06:31:40.652Z,-0.60
2022-11-20T06:34:07.848Z,-0.60
2022-11-20T06:36:34.626Z,-0.70
2022-11-20T06:39:01.903Z,-0.70
2022-11-20T06:41:29.061Z,-0.60
2022-11-20T06:43:55.983Z,-0.60
2022-11-20T06:46:22.831Z,-0.50
2022-11-20T06:48:50.476Z,-0.60
2022-11-20T06:51:17.713Z,-0.70
2022-11-20T06:53:44.716Z,-0.60
2022-11-20T06:56:11.392Z,-0.60
2022-11-20T06:58:39.220Z,-0.60
2022-11-20T07:01:11.218Z,-0.60
2022-11-20T07:03:38.981Z,-0.60
2022-11-20T07:06:06.811Z,-0.60
2022-11-20T07:08:33.965Z,-0.50
2022-11-20T07:11:02.545Z,-0.60
2022-11-20T07:13:29.865Z,-0.50
2022-11-20T07:15:59.831Z,-0.50
2022-11-20T07:18:26.537Z,-0.70
2022-11-20T07:20:53.316Z,-0.50
2022-11-20T07:23:20.053Z,-0.40
2022-11-20T07:25:46.756Z,-0.40
2022-11-20T07:28:15.014Z,-0.30
2022-11-20T07:30:41.748Z,-0.30
2022-11-20T07:33:08.465Z,-0.20
2022-11-20T07:35:35.159Z,0.00
2022-11-20T07:38:01.872Z,0.00
2022-11-20T07:40:29.120Z,0.00
2022-11-20T07:42:57.077Z,0.00
2022-11-20T07:45:25.243Z,0.10
2022-11-20T07:47:52.568Z,0.00
2022-11-20T07:50:20.261Z,0.00
2022-11-20T07:52:47.158Z,0.00
2022-11-20T07:55:14.018Z,0.10
2022-11-20T07:57:41.051Z,0.20
2022-11-20T08:00:10.190Z,0.10
2022-11-20T08:02:40.513Z,0.20
2022-11-20T08:05:08.348Z,0.30
2022-11-20T08:07:43.259Z,0.30
2022-11-20T08:10:12.254Z,0.30
2022-11-20T08:13:09.147Z,0.30
2022-11-20T08:15:36.966Z,0.30
2022-11-20T08:18:30.094Z,0.20
2022-11-20T08:20:55.483Z,0.30
2022-11-20T08:23:24.073Z,0.40
2022-11-20T08:25:52.090Z,0.40
2022-11-20T08:28:21.832Z,0.40
2022-11-20T08:30:49.665Z,0.60
2022-11-20T08:33:18.219Z,0.60
2022-11-20T08:35:45.179Z,0.60
2022-11-20T08:38:11.929Z,0.70
2022-11-20T08:40:38.706Z,0.70
2022-11-20T08:43:05.530Z,0.80
2022-11-20T08:45:34.550Z,0.80
2022-11-20T08:48:03.950Z,0.80
2022-11-20T08:50:33.364Z,0.90
2022-11-20T08:53:06.909Z,0.80
2022-11-20T08:55:36.304Z,0.90
2022-11-20T08:58:09.428Z,0.90
2022-11-20T09:00:36.256Z,1.00
2022-11-20T09:03:03.336Z,1.00
2022-11-20T09:05:30.569Z,1.10
2022-11-20T09:07:58.406Z,1.30
2022-11-20T09:10:25.614Z,1.40
2022-11-20T09:12:53.690Z,1.30
2022-11-20T09:15:20.633Z,1.40
2022-11-20T09:17:54.580Z,1.50
2022-11-20T09:20:21.667Z,1.50
2022-11-20T09:22:49.250Z,1.50
2022-11-20T09:25:16.050Z,1.50
2022-11-20T09:27:44.739Z,1.50
2022-11-20T09:30:12.018Z,1.50
2022-11-20T09:32:40.263Z,1.70
2022-11-20T09:35:07.684Z,1.70
2022-11-20T09:37:34.462Z,1.60
2022-11-20T09:40:01.194Z,1.80
2022-11-20T09:42:54.373Z,1.80
2022-11-20T09:45:42.193Z,1.90
2022-11-20T09:48:11.803Z,2.00
2022-11-20T09:50:49.723Z,2.00
2022-11-20T09:53:53.715Z,2.00
2022-11-20T09:56:22.815Z,2.00
2022-11-20T09:58:52.609Z,2.00
2022-11-20T10:01:22.095Z,2.00
2022-11-20T10:04:24.158Z,2.10
2022-11-20T10:07:31.457Z,2.10
2022-11-20T10:09:56.840Z,2.00
2022-11-20T10:12:44.669Z,2.10
2022-11-20T10:15:29.836Z,2.10
2022-11-20T10:18:24.496Z,2.10
2022-11-20T10:21:14.231Z,2.10
2022-11-20T10:23:52.931Z,2.10
2022-11-20T10:26:47.094Z,2.10
2022-11-20T10:29:14.982Z,2.00
2022-11-20T10:31:47.918Z,2.00
2022-11-20T10:34:32.454Z,2.20
2022-11-20T10:37:19.582Z,2.30
2022-11-20T10:39:55.453Z,2.30
2022-11-20T10:42:41.177Z,2.30
2022-11-20T10:45:51.384Z,2.30
2022-11-20T10:48:24.448Z,2.40
2022-11-20T10:51:16.562Z,2.50
2022-11-20T10:54:15.651Z,2.60
2022-11-20T10:56:50.112Z,2.70
2022-11-20T10:59:28.943Z,2.80
2022-11-20T11:01:55.667Z,2.90
2022-11-20T11:04:46.360Z,3.00
2022-11-20T11:07:26.890Z,2.90
2022-11-20T11:09:56.013Z,2.90
2022-11-20T11:12:25.829Z,2.90
2022-11-20T11:14:59.021Z,3.00
2022-11-20T11:17:32.732Z,3.00
2022-11-20T11:20:03.656Z,3.10
2022-11-20T11:22:33.711Z,3.10
2022-11-20T11:25:01.356Z,3.10
2022-11-20T11:27:28.579Z,3.20
2022-11-20T11:30:17.002Z,3.30
2022-11-20T11:32:44.248Z,3.40
2022-11-20T11:35:26.673Z,3.40
2022-11-20T11:38:05.853Z,3.30
2022-11-20T11:40:35.620Z,3.30
2022-11-20T11:43:28.065Z,3.40
2022-11-20T11:45:56.894Z,3.50
2022-11-20T11:48:23.743Z,3.40
2022-11-20T11:50:53.005Z,3.40
2022-11-20T11:53:22.760Z,3.40
2022-11-20T11:56:12.220Z,3.30
2022-11-20T11:58:51.140Z,3.40
2022-11-20T12:01:46.014Z,3.30
2022-11-20T12:04:39.647Z,3.40
2022-11-20T12:07:44.892Z,3.40
2022-11-20T12:10:04.421Z,3.40
2022-11-20T12:12:44.092Z,3.30
2022-11-20T12:15:24.114Z,3.30
2022-11-20T12:17:50.991Z,3.40
2022-11-20T12:20:17.932Z,3.30
2022-11-20T12:23:18.865Z,3.40
2022-11-20T12:25:49.883Z,3.50
2022-11-20T12:28:39.386Z,3.50
2022-11-20T12:31:41.493Z,3.60
2022-11-20T12:34:29.221Z,3.70
2022-11-20T12:37:36.231Z,3.60
2022-11-20T12:40:36.801Z,3.60
2022-11-20T12:43:42.811Z,3.70
2022-11-20T12:46:50.666Z,3.80
2022-11-20T12:49:40.442Z,3.90
2022-11-20T12:52:32.083Z,3.80
2022-11-20T12:55:21.652Z,3.80
2022-11-20T12:58:17.443Z,3.90
2022-11-20T13:01:06.019Z,3.90
2022-11-20T13:03:45.431Z,3.90
2022-11-20T13:06:18.391Z,3.90
2022-11-20T13:08:54.503Z,4.00
2022-11-20T13:12:04.394Z,4.00
2022-11-20T13:14:53.442Z,4.00
2022-11-20T13:17:35.647Z,4.00
2022-11-20T13:20:06.299Z,4.10
2022-11-20T13:23:09.631Z,4.20
2022-11-20T13:25:38.814Z,4.20
2022-11-20T13:28:29.865Z,4.30
2022-11-20T13:30:58.095Z,4.30
2022-11-20T13:33:35.649Z,4.30
2022-11-20T13:36:07.893Z,4.20
2022-11-20T13:38:52.097Z,4.30
2022-11-20T13:41:36.535Z,4.30
2022-11-20T13:44:25.746Z,4.30
2022-11-20T13:46:52.775Z,4.30
2022-11-20T13:49:44.853Z,4.30
2022-11-20T13:52:49.603Z,4.30
2022-11-20T13:55:43.414Z,4.40
2022-11-20T13:58:21.834Z,4.40
2022-11-20T14:00:58.687Z,4.40
2022-11-20T14:03:58.520Z,4.40
2022-11-20T14:06:29.703Z,4.40
2022-11-20T14:08:56.901Z,4.50
2022-11-20T14:11:26.527Z,4.40
2022-11-20T14:13:58.141Z,4.50
2022-11-20T14:16:26.555Z,4.50
2022-11-20T14:18:54.485Z,4.50
2022-11-20T14:21:30.539Z,4.50
2022-11-20T14:24:07.512Z,4.60
2022-11-20T14:26:35.030Z,4.50
2022-11-20T14:29:02.167Z,4.50
2022-11-20T14:31:29.530Z,4.60
2022-11-20T14:33:56.577Z,4.60
2022-11-20T14:36:25.553Z,4.60
2022-11-20T14:38:54.317Z,4.60
2022-11-20T14:41:25.175Z,4.70
2022-11-20T14:43:58.309Z,4.60
2022-11-20T14:46:26.210Z,4.60
2022-11-20T14:48:58.586Z,4.60
2022-11-20T14:51:32.637Z,4.70
2022-11-20T14:54:19.850Z,4.80
2022-11-20T14:57:04.521Z,4.70
2022-11-20T14:59:36.186Z,4.70
2022-11-20T15:02:10.049Z,4.60
2022-11-20T15:05:00.435Z,4.50
2022-11-20T15:07:30.189Z,4.60
2022-11-20T15:10:01.647Z,4.50
2022-11-20T15:12:29.163Z,4.50
2022-11-20T15:14:56.435Z,4.50
2022-11-20T15:17:23.426Z,4.50
2022-11-20T15:19:50.289Z,4.60
2022-11-20T15:22:20.138Z,4.60
2022-11-20T15:24:47.729Z,4.50
2022-11-20T15:27:14.624Z,4.60
2022-11-20T15:29:42.672Z,4.60
2022-11-20T15:32:13.407Z,4.60
2022-11-20T15:34:40.801Z,4.70
2022-11-20T15:37:07.572Z,4.60
2022-11-20T15:39:34.340Z,4.60
2022-11-20T15:42:01.074Z,4.60
2022-11-20T15:44:27.841Z,4.60
2022-11-20T15:46:54.812Z,4.60
2022-11-20T15:49:23.824Z,4.60
2022-11-20T15:51:51.433Z,4.70
2022-11-20T15:54:24.047Z,4.70
2022-11-20T15:56:54.610Z,4.70
2022-11-20T15:59:21.737Z,4.70
2022-11-20T16:01:48.526Z,4.70
2022-11-20T16:04:17.644Z,4.80
2022-11-20T16:06:44.495Z,4.80
2022-11-20T16:09:11.604Z,4.90
2022-11-20T16:11:38.780Z,4.90
2022-11-20T16:14:25.206Z,4.90
2022-11-20T16:16:52.273Z,5.00
2022-11-20T16:19:19.541Z,5.00
2022-11-20T16:21:46.511Z,5.00
2022-11-20T16:24:15.204Z,5.10
2022-11-20T16:26:42.102Z,5.10
2022-11-20T16:29:09.366Z,5.10
2022-11-20T16:31:36.419Z,5.10
2022-11-20T16:34:12.024Z,5.20
2022-11-20T16:36:43.367Z,5.20
2022-11-20T16:39:10.307Z,5.20
2022-11-20T16:41:37.369Z,5.20
2022-11-20T16:44:08.647Z,5.20
2022-11-20T16:46:35.857Z,5.30
2022-11-20T16:49:05.570Z,5.30
2022-11-20T16:51:35.350Z,5.40
2022-11-20T16:54:03.741Z,5.40
2022-11-20T16:56:30.454Z,5.40
2022-11-20T16:59:00.020Z,5.50
2022-11-20T17:01:28.901Z,5.60
2022-11-20T17:04:04.003Z,5.60
2022-11-20T17:06:33.725Z,5.60
2022-11-20T17:09:00.709Z,5.60
2022-11-20T17:11:28.460Z,5.60
2022-11-20T17:13:56.629Z,5.60
2022-11-20T17:16:24.637Z,5.70
2022-11-20T17:18:51.390Z,5.80
2022-11-20T17:21:20.093Z,5.80
2022-11-20T17:23:47.553Z,5.80
2022-11-20T17:26:20.058Z,5.90
2022-11-20T17:28:52.486Z,5.90
2022-11-20T17:31:19.549Z,5.90
2022-11-20T17:33:47.028Z,6.00
2022-11-20T17:36:16.606Z,6.00
2022-11-20T17:38:44.501Z,6.10
2022-11-20T17:41:16.932Z,6.10
2022-11-20T17:43:44.355Z,6.10
2022-11-20T17:46:17.255Z,6.30
2022-11-20T17:48:44.764Z,6.30
2022-11-20T17:51:18.133Z,6.30
2022-11-20T17:53:47.689Z,6.40
2022-11-20T17:56:33.257Z,6.40
2022-11-20T17:59:00.780Z,6.50
2022-11-20T18:01:27.645Z,6.50
2022-11-20T18:03:56.573Z,6.60
2022-11-20T18:06:25.424Z,6.60
2022-11-20T18:08:52.287Z,6.60
2022-11-20T18:11:24.422Z,6.70
2022-11-20T18:14:12.528Z,6.70
2022-11-20T18:16:45.980Z,6.70
2022-11-20T18:19:15.168Z,6.80
2022-11-20T18:21:42.161Z,6.80
2022-11-20T18:24:09.293Z,6.70
2022-11-20T18:26:42.774Z,6.70
2022-11-20T18:29:12.405Z,6.80
2022-11-20T18:31:39.621Z,6.70
2022-11-20T18:34:11.396Z,6.70
2022-11-20T18:36:38.628Z,6.70
2022-11-20T18:39:05.802Z,6.70
2022-11-20T18:41:51.561Z,6.70
2022-11-20T18:44:42.204Z,6.70
2022-11-20T18:47:14.633Z,6.70
2022-11-20T18:49:42.509Z,6.70
2022-11-20T18:52:09.453Z,6.60
2022-11-20T18:54:37.061Z,6.60
2022-11-20T18:57:07.431Z,6.60
2022-11-20T18:59:34.193Z,6.50
2022-11-20T19:02:01.048Z,6.50
2022-11-20T19:04:28.162Z,6.40
2022-11-20T19:06:56.392Z,6.30
2022-11-20T19:09:24.364Z,6.20
2022-11-20T19:11:51.658Z,6.20
2022-11-20T19:14:18.666Z,6.10
2022-11-20T19:16:45.612Z,6.10
2022-11-20T19:19:12.731Z,6.00
2022-11-20T19:21:39.546Z,6.00
2022-11-20T19:24:06.590Z,5.90
2022-11-20T19:26:36.139Z,5.80
2022-11-20T19:29:04.468Z,5.90
2022-11-20T19:31:31.711Z,5.80
2022-11-20T19:34:00.840Z,5.80
2022-11-20T19:36:30.374Z,5.80
2022-11-20T19:38:57.256Z,5.80
2022-11-20T19:41:29.153Z,5.80
2022-11-20T19:44:11.714Z,5.70
2022-11-20T19:46:39.974Z,5.90
2022-11-20T19:49:10.199Z,5.80
2022-11-20T19:51:39.206Z,5.90
2022-11-20T19:54:06.820Z,5.90
2022-11-20T19:56:34.452Z,5.90
2022-11-20T19:59:01.911Z,5.80
2022-11-20T20:01:30.793Z,5.70
2022-11-20T20:04:05.441Z,5.80
2022-11-20T20:06:34.428Z,5.80
2022-11-20T20:09:07.705Z,5.80
2022-11-20T20:11:35.472Z,5.80
2022-11-20T20:14:07.103Z,5.80
2022-11-20T20:16:35.179Z,5.80
2022-11-20T20:19:03.784Z,5.80
2022-11-20T20:21:32.180Z,5.80
2022-11-20T20:23:59.721Z,5.70
2022-11-20T20:26:28.715Z,5.80
2022-11-20T20:28:55.971Z,5.80
2022-11-20T20:31:26.505Z,5.70
2022-11-20T20:33:53.393Z,5.80
2022-11-20T20:36:21.731Z,5.80
2022-11-20T20:38:51.944Z,5.80
2022-11-20T20:41:23.077Z,5.80
2022-11-20T20:44:08.660Z,5.90
2022-11-20T20:46:35.427Z,5.80
2022-11-20T20:49:02.237Z,5.90
2022-11-20T20:51:29.652Z,5.90
2022-11-20T20:53:56.513Z,5.90
2022-11-20T20:56:23.249Z,5.80
2022-11-20T20:58:49.956Z,5.90
2022-11-20T21:01:18.819Z,5.90
2022-11-20T21:03:45.598Z,5.90
2022-11-20T21:06:12.826Z,5.80
2022-11-20T21:08:41.612Z,5.80
2022-11-20T21:11:12.477Z,5.90
2022-11-20T21:13:40.694Z,5.90
2022-11-20T21:16:07.862Z,5.90
2022-11-20T21:18:35.418Z,6.00
2022-11-20T21:21:24.310Z,5.90
2022-11-20T21:23:53.325Z,5.90
2022-11-20T21:26:21.313Z,5.90
2022-11-20T21:28:49.795Z,5.90
2022-11-20T21:31:23.460Z,5.90
2022-11-20T21:33:51.588Z,5.80
2022-11-20T21:36:24.216Z,5.90
2022-11-20T21:38:52.588Z,5.90
2022-11-20T21:41:19.423Z,6.00
2022-11-20T21:43:51.548Z,6.00
2022-11-20T21:46:26.010Z,5.90
2022-11-20T21:48:53.313Z,5.90
2022-11-20T21:51:22.732Z,5.90
2022-11-20T21:53:50.626Z,5.90
2022-11-20T21:56:20.703Z,5.90
2022-11-20T21:58:48.702Z,5.80
2022-11-20T22:01:27.804Z,5.70
2022-11-20T22:03:57.438Z,5.70
2022-11-20T22:06:26.098Z,5.60
2022-11-20T22:08:53.262Z,5.70
2022-11-20T22:11:21.804Z,5.80
2022-11-20T22:14:07.682Z,5.70
2022-11-20T22:16:36.200Z,5.50
2022-11-20T22:19:04.319Z,5.60
2022-11-20T22:21:31.654Z,5.60
2022-11-20T22:23:58.825Z,5.50
2022-11-20T22:26:27.912Z,5.50
2022-11-20T22:28:57.242Z,5.60
2022-11-20T22:31:25.585Z,5.60
2022-11-20T22:33:52.698Z,5.60
2022-11-20T22:36:28.359Z,5.60
2022-11-20T22:38:55.598Z,5.50
2022-11-20T22:41:27.431Z,5.40
2022-11-20T22:43:59.305Z,5.50
2022-11-20T22:46:27.451Z,5.60
2022-11-20T22:48:56.402Z,5.70
2022-11-20T22:51:25.819Z,5.70
2022-11-20T22:53:52.933Z,5.70
2022-11-20T22:56:20.543Z,5.70
2022-11-20T22:58:49.093Z,5.60
2022-11-20T23:01:27.583Z,5.50
2022-11-20T23:04:00.074Z,5.50
2022-11-20T23:06:27.317Z,5.60
2022-11-20T23:08:54.374Z,5.80
2022-11-20T23:11:23.989Z,5.70
2022-11-20T23:13:56.571Z,5.70
2022-11-20T23:16:24.371Z,5.80
2022-11-20T23:18:59.655Z,5.70
2022-11-20T23:21:26.840Z,5.50
2022-11-20T23:23:56.765Z,5.40
2022-11-20T23:26:25.759Z,5.40
2022-11-20T23:28:54.803Z,5.50
2022-11-20T23:31:21.850Z,5.60
2022-11-20T23:33:48.807Z,5.70
2022-11-20T23:36:16.032Z,5.80
2022-11-20T23:38:43.365Z,5.80
2022-11-20T23:41:11.462Z,5.80
2022-11-20T23:43:38.232Z,5.70
2022-11-20T23:46:05.786Z,5.90
2022-11-20T23:48:35.797Z,6.00
2022-11-20T23:51:03.362Z,6.00
2022-11-20T23:53:30.191Z,6.00
2022-11-20T23:55:59.638Z,6.00
2022-11-20T23:58:30.543Z,6.10
